sensor_id;sensor_type;location;lat;lon;timestamp;P1;durP1;ratioP1;P2;durP2;ratioP2
20491;SDS011;10404;51.468;6.762;2024-02-28T00:02:18;22.02;;;11.35;;
20491;SDS011;10404;51.468;6.762;2024-02-28T00:04:43;19.95;;;11.27;;
20491;SDS011;10404;51.468;6.762;2024-02-28T00:07:09;19.15;;;12.20;;
20491;SDS011;10404;51.468;6.762;2024-02-28T00:09:35;17.58;;;11.63;;
20491;SDS011;10404;51.468;6.762;2024-02-28T00:12:00;18.85;;;10.88;;
20491;SDS011;10404;51.468;6.762;2024-02-28T00:14:26;17.20;;;11.68;;
20491;SDS011;10404;51.468;6.762;2024-02-28T00:16:51;19.42;;;11.27;;
20491;SDS011;10404;51.468;6.762;2024-02-28T00:19:17;23.58;;;11.75;;
20491;SDS011;10404;51.468;6.762;2024-02-28T00:21:43;21.55;;;12.38;;
20491;SDS011;10404;51.468;6.762;2024-02-28T00:24:09;19.60;;;11.32;;
20491;SDS011;10404;51.468;6.762;2024-02-28T00:26:35;21.25;;;11.00;;
20491;SDS011;10404;51.468;6.762;2024-02-28T00:29:00;21.33;;;10.90;;
20491;SDS011;10404;51.468;6.762;2024-02-28T00:31:26;20.52;;;12.95;;
20491;SDS011;10404;51.468;6.762;2024-02-28T00:33:52;18.63;;;12.52;;
20491;SDS011;10404;51.468;6.762;2024-02-28T00:36:18;18.67;;;12.98;;
20491;SDS011;10404;51.468;6.762;2024-02-28T00:38:44;20.25;;;12.70;;
20491;SDS011;10404;51.468;6.762;2024-02-28T00:41:09;23.73;;;12.38;;
20491;SDS011;10404;51.468;6.762;2024-02-28T00:43:35;19.33;;;11.50;;
20491;SDS011;10404;51.468;6.762;2024-02-28T00:46:00;19.48;;;12.15;;
20491;SDS011;10404;51.468;6.762;2024-02-28T00:53:17;17.65;;;9.98;;
20491;SDS011;10404;51.468;6.762;2024-02-28T00:55:44;18.65;;;11.57;;
20491;SDS011;10404;51.468;6.762;2024-02-28T00:58:10;20.20;;;11.68;;
20491;SDS011;10404;51.468;6.762;2024-02-28T01:10:21;19.73;;;9.90;;
20491;SDS011;10404;51.468;6.762;2024-02-28T01:12:47;23.67;;;14.47;;
20491;SDS011;10404;51.468;6.762;2024-02-28T01:15:12;21.13;;;12.77;;
20491;SDS011;10404;51.468;6.762;2024-02-28T01:17:38;20.02;;;12.07;;
20491;SDS011;10404;51.468;6.762;2024-02-28T01:20:04;18.63;;;10.00;;
20491;SDS011;10404;51.468;6.762;2024-02-28T01:22:30;22.33;;;12.80;;
20491;SDS011;10404;51.468;6.762;2024-02-28T01:24:56;17.92;;;11.70;;
20491;SDS011;10404;51.468;6.762;2024-02-28T01:27:21;19.33;;;11.35;;
20491;SDS011;10404;51.468;6.762;2024-02-28T01:29:47;18.70;;;11.18;;
20491;SDS011;10404;51.468;6.762;2024-02-28T01:32:12;23.27;;;11.80;;
20491;SDS011;10404;51.468;6.762;2024-02-28T01:34:38;20.45;;;11.20;;
20491;SDS011;10404;51.468;6.762;2024-02-28T01:37:03;21.52;;;11.93;;
20491;SDS011;10404;51.468;6.762;2024-02-28T01:39:29;18.67;;;10.70;;
20491;SDS011;10404;51.468;6.762;2024-02-28T01:41:54;20.20;;;11.68;;
20491;SDS011;10404;51.468;6.762;2024-02-28T01:44:20;22.60;;;12.30;;
20491;SDS011;10404;51.468;6.762;2024-02-28T01:46:46;20.42;;;12.18;;
20491;SDS011;10404;51.468;6.762;2024-02-28T01:49:12;22.77;;;12.90;;
20491;SDS011;10404;51.468;6.762;2024-02-28T01:51:38;20.15;;;11.73;;
20491;SDS011;10404;51.468;6.762;2024-02-28T01:54:04;19.98;;;11.75;;
20491;SDS011;10404;51.468;6.762;2024-02-28T01:56:30;17.60;;;10.50;;
20491;SDS011;10404;51.468;6.762;2024-02-28T01:58:56;20.50;;;11.48;;
20491;SDS011;10404;51.468;6.762;2024-02-28T02:01:23;20.25;;;12.02;;
20491;SDS011;10404;51.468;6.762;2024-02-28T02:03:49;22.95;;;13.23;;
20491;SDS011;10404;51.468;6.762;2024-02-28T02:06:14;18.42;;;10.90;;
20491;SDS011;10404;51.468;6.762;2024-02-28T02:08:40;17.88;;;11.05;;
20491;SDS011;10404;51.468;6.762;2024-02-28T02:11:06;21.42;;;11.48;;
20491;SDS011;10404;51.468;6.762;2024-02-28T02:13:32;23.00;;;12.45;;
20491;SDS011;10404;51.468;6.762;2024-02-28T02:15:58;23.95;;;12.45;;
20491;SDS011;10404;51.468;6.762;2024-02-28T02:18:23;19.33;;;12.30;;
20491;SDS011;10404;51.468;6.762;2024-02-28T02:20:59;21.75;;;12.15;;
20491;SDS011;10404;51.468;6.762;2024-02-28T02:23:30;19.85;;;10.93;;
20491;SDS011;10404;51.468;6.762;2024-02-28T02:25:56;20.25;;;11.55;;
20491;SDS011;10404;51.468;6.762;2024-02-28T02:28:22;23.33;;;10.85;;
20491;SDS011;10404;51.468;6.762;2024-02-28T02:30:47;22.40;;;11.93;;
20491;SDS011;10404;51.468;6.762;2024-02-28T02:33:13;22.80;;;11.05;;
20491;SDS011;10404;51.468;6.762;2024-02-28T02:35:39;21.58;;;11.27;;
20491;SDS011;10404;51.468;6.762;2024-02-28T02:38:05;18.92;;;10.68;;
20491;SDS011;10404;51.468;6.762;2024-02-28T02:40:30;18.88;;;10.07;;
20491;SDS011;10404;51.468;6.762;2024-02-28T02:42:56;19.35;;;10.80;;
20491;SDS011;10404;51.468;6.762;2024-02-28T02:45:21;21.17;;;11.50;;
20491;SDS011;10404;51.468;6.762;2024-02-28T02:47:47;21.30;;;11.82;;
20491;SDS011;10404;51.468;6.762;2024-02-28T02:50:12;20.30;;;12.02;;
20491;SDS011;10404;51.468;6.762;2024-02-28T02:52:38;19.60;;;10.95;;
20491;SDS011;10404;51.468;6.762;2024-02-28T02:55:03;21.92;;;11.07;;
20491;SDS011;10404;51.468;6.762;2024-02-28T02:57:29;25.08;;;15.02;;
20491;SDS011;10404;51.468;6.762;2024-02-28T02:59:57;21.30;;;11.80;;
20491;SDS011;10404;51.468;6.762;2024-02-28T03:02:22;19.00;;;10.43;;
20491;SDS011;10404;51.468;6.762;2024-02-28T03:04:48;23.92;;;11.15;;
20491;SDS011;10404;51.468;6.762;2024-02-28T03:07:13;19.80;;;10.75;;
20491;SDS011;10404;51.468;6.762;2024-02-28T03:09:39;18.88;;;11.02;;
20491;SDS011;10404;51.468;6.762;2024-02-28T03:12:05;19.98;;;10.82;;
20491;SDS011;10404;51.468;6.762;2024-02-28T03:14:30;20.67;;;10.18;;
20491;SDS011;10404;51.468;6.762;2024-02-28T03:16:56;15.73;;;9.55;;
20491;SDS011;10404;51.468;6.762;2024-02-28T03:19:21;17.08;;;10.23;;
20491;SDS011;10404;51.468;6.762;2024-02-28T03:29:04;17.75;;;9.35;;
20491;SDS011;10404;51.468;6.762;2024-02-28T03:31:29;22.93;;;13.80;;
20491;SDS011;10404;51.468;6.762;2024-02-28T03:33:55;23.30;;;14.63;;
20491;SDS011;10404;51.468;6.762;2024-02-28T03:36:20;21.02;;;11.60;;
20491;SDS011;10404;51.468;6.762;2024-02-28T03:41:11;20.45;;;11.60;;
20491;SDS011;10404;51.468;6.762;2024-02-28T03:43:37;17.92;;;10.88;;
20491;SDS011;10404;51.468;6.762;2024-02-28T03:46:02;20.27;;;11.55;;
20491;SDS011;10404;51.468;6.762;2024-02-28T03:48:28;20.90;;;11.13;;
20491;SDS011;10404;51.468;6.762;2024-02-28T03:55:44;20.90;;;10.82;;
20491;SDS011;10404;51.468;6.762;2024-02-28T03:58:10;17.52;;;10.60;;
20491;SDS011;10404;51.468;6.762;2024-02-28T04:00:36;20.42;;;10.32;;
20491;SDS011;10404;51.468;6.762;2024-02-28T04:03:02;19.67;;;10.10;;
20491;SDS011;10404;51.468;6.762;2024-02-28T04:05:28;23.70;;;12.30;;
20491;SDS011;10404;51.468;6.762;2024-02-28T04:07:54;21.65;;;10.38;;
20491;SDS011;10404;51.468;6.762;2024-02-28T04:10:20;22.45;;;11.90;;
20491;SDS011;10404;51.468;6.762;2024-02-28T04:12:45;22.48;;;12.10;;
20491;SDS011;10404;51.468;6.762;2024-02-28T04:15:11;23.65;;;12.75;;
20491;SDS011;10404;51.468;6.762;2024-02-28T04:17:40;21.88;;;11.02;;
20491;SDS011;10404;51.468;6.762;2024-02-28T04:20:09;22.48;;;11.15;;
20491;SDS011;10404;51.468;6.762;2024-02-28T04:25:01;23.77;;;10.93;;
20491;SDS011;10404;51.468;6.762;2024-02-28T04:27:28;29.23;;;16.95;;
20491;SDS011;10404;51.468;6.762;2024-02-28T04:29:53;30.43;;;18.07;;
20491;SDS011;10404;51.468;6.762;2024-02-28T04:32:19;34.28;;;19.05;;
20491;SDS011;10404;51.468;6.762;2024-02-28T04:34:44;33.37;;;20.13;;
20491;SDS011;10404;51.468;6.762;2024-02-28T04:37:10;34.43;;;18.60;;
20491;SDS011;10404;51.468;6.762;2024-02-28T04:39:36;34.38;;;19.73;;
20491;SDS011;10404;51.468;6.762;2024-02-28T04:42:01;33.60;;;20.13;;
20491;SDS011;10404;51.468;6.762;2024-02-28T04:44:27;35.50;;;20.83;;
20491;SDS011;10404;51.468;6.762;2024-02-28T16:35:14;17.85;;;9.23;;
20491;SDS011;10404;51.468;6.762;2024-02-28T16:37:39;20.48;;;10.50;;
20491;SDS011;10404;51.468;6.762;2024-02-28T16:40:05;22.95;;;11.88;;
20491;SDS011;10404;51.468;6.762;2024-02-28T16:42:32;21.52;;;10.65;;
20491;SDS011;10404;51.468;6.762;2024-02-28T16:44:58;25.65;;;11.57;;
20491;SDS011;10404;51.468;6.762;2024-02-28T16:47:23;19.20;;;10.77;;
20491;SDS011;10404;51.468;6.762;2024-02-28T16:49:49;19.23;;;11.20;;
20491;SDS011;10404;51.468;6.762;2024-02-28T16:52:14;20.70;;;10.57;;
20491;SDS011;10404;51.468;6.762;2024-02-28T16:54:42;20.48;;;10.32;;
20491;SDS011;10404;51.468;6.762;2024-02-28T16:57:08;25.23;;;11.50;;
20491;SDS011;10404;51.468;6.762;2024-02-28T16:59:33;21.73;;;10.00;;
20491;SDS011;10404;51.468;6.762;2024-02-28T17:01:59;19.63;;;10.82;;
20491;SDS011;10404;51.468;6.762;2024-02-28T17:04:24;24.42;;;10.07;;
20491;SDS011;10404;51.468;6.762;2024-02-28T17:06:52;20.25;;;10.30;;
20491;SDS011;10404;51.468;6.762;2024-02-28T17:09:18;20.70;;;10.63;;
20491;SDS011;10404;51.468;6.762;2024-02-28T17:11:44;19.58;;;10.65;;
20491;SDS011;10404;51.468;6.762;2024-02-28T17:14:09;20.13;;;10.13;;
20491;SDS011;10404;51.468;6.762;2024-02-28T17:16:35;21.90;;;10.38;;
20491;SDS011;10404;51.468;6.762;2024-02-28T17:19:02;21.27;;;9.50;;
20491;SDS011;10404;51.468;6.762;2024-02-28T17:21:27;21.15;;;9.50;;
20491;SDS011;10404;51.468;6.762;2024-02-28T17:23:54;22.15;;;11.82;;
20491;SDS011;10404;51.468;6.762;2024-02-28T17:26:19;19.73;;;10.15;;
20491;SDS011;10404;51.468;6.762;2024-02-28T17:28:45;19.60;;;11.10;;
20491;SDS011;10404;51.468;6.762;2024-02-28T17:31:13;20.20;;;9.35;;
20491;SDS011;10404;51.468;6.762;2024-02-28T17:33:39;20.25;;;10.75;;
20491;SDS011;10404;51.468;6.762;2024-02-28T17:36:04;20.77;;;10.20;;
20491;SDS011;10404;51.468;6.762;2024-02-28T17:38:31;18.38;;;10.38;;
20491;SDS011;10404;51.468;6.762;2024-02-28T17:40:57;18.23;;;9.38;;
20491;SDS011;10404;51.468;6.762;2024-02-28T17:43:23;20.08;;;9.30;;
20491;SDS011;10404;51.468;6.762;2024-02-28T17:45:48;19.25;;;9.15;;
20491;SDS011;10404;51.468;6.762;2024-02-28T17:48:14;19.88;;;10.88;;
20491;SDS011;10404;51.468;6.762;2024-02-28T17:50:42;20.77;;;10.75;;
20491;SDS011;10404;51.468;6.762;2024-02-28T17:53:08;19.42;;;10.57;;
20491;SDS011;10404;51.468;6.762;2024-02-28T17:55:33;18.48;;;9.35;;
20491;SDS011;10404;51.468;6.762;2024-02-28T17:57:59;16.83;;;9.40;;
20491;SDS011;10404;51.468;6.762;2024-02-28T18:00:24;18.33;;;9.30;;
20491;SDS011;10404;51.468;6.762;2024-02-28T18:02:53;17.95;;;9.57;;
20491;SDS011;10404;51.468;6.762;2024-02-28T18:05:19;19.05;;;8.55;;
20491;SDS011;10404;51.468;6.762;2024-02-28T18:07:45;16.40;;;8.55;;
20491;SDS011;10404;51.468;6.762;2024-02-28T18:10:11;18.25;;;8.25;;
20491;SDS011;10404;51.468;6.762;2024-02-28T18:12:37;17.42;;;9.10;;
20491;SDS011;10404;51.468;6.762;2024-02-28T18:15:03;18.67;;;8.55;;
20491;SDS011;10404;51.468;6.762;2024-02-28T18:17:29;16.88;;;7.80;;
20491;SDS011;10404;51.468;6.762;2024-02-28T18:19:54;18.42;;;8.35;;
20491;SDS011;10404;51.468;6.762;2024-02-28T18:22:20;16.70;;;8.23;;
20491;SDS011;10404;51.468;6.762;2024-02-28T18:24:46;16.73;;;7.75;;
20491;SDS011;10404;51.468;6.762;2024-02-28T18:27:11;16.42;;;8.10;;
20491;SDS011;10404;51.468;6.762;2024-02-28T18:29:37;17.13;;;8.15;;
20491;SDS011;10404;51.468;6.762;2024-02-28T18:32:04;15.90;;;7.72;;
20491;SDS011;10404;51.468;6.762;2024-02-28T18:34:30;16.48;;;9.35;;
20491;SDS011;10404;51.468;6.762;2024-02-28T18:36:55;17.70;;;9.43;;
20491;SDS011;10404;51.468;6.762;2024-02-28T18:39:22;17.58;;;9.13;;
20491;SDS011;10404;51.468;6.762;2024-02-28T18:44:17;16.85;;;8.23;;
20491;SDS011;10404;51.468;6.762;2024-02-28T18:46:43;15.48;;;7.53;;
20491;SDS011;10404;51.468;6.762;2024-02-28T18:49:09;17.00;;;7.30;;
20491;SDS011;10404;51.468;6.762;2024-02-28T18:51:34;15.40;;;8.18;;
20491;SDS011;10404;51.468;6.762;2024-02-28T18:54:00;14.90;;;8.30;;
20491;SDS011;10404;51.468;6.762;2024-02-28T18:56:27;16.48;;;9.07;;
20491;SDS011;10404;51.468;6.762;2024-02-28T18:58:53;14.60;;;8.93;;
20491;SDS011;10404;51.468;6.762;2024-02-28T19:01:18;17.08;;;8.60;;
20491;SDS011;10404;51.468;6.762;2024-02-28T19:03:44;15.82;;;8.43;;
20491;SDS011;10404;51.468;6.762;2024-02-28T19:06:09;14.25;;;8.02;;
20491;SDS011;10404;51.468;6.762;2024-02-28T19:08:36;16.48;;;8.38;;
20491;SDS011;10404;51.468;6.762;2024-02-28T19:11:02;17.58;;;8.82;;
20491;SDS011;10404;51.468;6.762;2024-02-28T19:13:28;17.63;;;8.65;;
20491;SDS011;10404;51.468;6.762;2024-02-28T19:15:53;16.40;;;8.63;;
20491;SDS011;10404;51.468;6.762;2024-02-28T19:18:19;16.15;;;8.30;;
20491;SDS011;10404;51.468;6.762;2024-02-28T19:20:45;15.95;;;7.90;;
20491;SDS011;10404;51.468;6.762;2024-02-28T19:23:12;17.10;;;8.18;;
20491;SDS011;10404;51.468;6.762;2024-02-28T19:25:38;18.25;;;8.60;;
20491;SDS011;10404;51.468;6.762;2024-02-28T19:28:04;17.88;;;8.50;;
20491;SDS011;10404;51.468;6.762;2024-02-28T19:30:30;19.85;;;9.90;;
20491;SDS011;10404;51.468;6.762;2024-02-28T19:32:55;17.25;;;8.55;;
20491;SDS011;10404;51.468;6.762;2024-02-28T19:35:21;15.38;;;9.02;;
20491;SDS011;10404;51.468;6.762;2024-02-28T19:37:47;17.90;;;9.23;;
20491;SDS011;10404;51.468;6.762;2024-02-28T19:40:12;16.70;;;9.00;;
20491;SDS011;10404;51.468;6.762;2024-02-28T19:42:38;16.55;;;8.27;;
20491;SDS011;10404;51.468;6.762;2024-02-28T19:45:04;17.90;;;8.82;;
20491;SDS011;10404;51.468;6.762;2024-02-28T19:47:30;19.23;;;9.98;;
20491;SDS011;10404;51.468;6.762;2024-02-28T19:49:56;20.13;;;10.43;;
20491;SDS011;10404;51.468;6.762;2024-02-28T19:52:24;19.95;;;10.60;;
20491;SDS011;10404;51.468;6.762;2024-02-28T19:54:50;18.95;;;10.23;;
20491;SDS011;10404;51.468;6.762;2024-02-28T19:57:15;18.95;;;10.27;;
20491;SDS011;10404;51.468;6.762;2024-02-28T19:59:43;22.08;;;11.63;;
20491;SDS011;10404;51.468;6.762;2024-02-28T20:02:09;20.58;;;9.48;;
20491;SDS011;10404;51.468;6.762;2024-02-28T20:04:35;20.35;;;9.68;;
20491;SDS011;10404;51.468;6.762;2024-02-28T20:07:01;16.20;;;9.43;;
20491;SDS011;10404;51.468;6.762;2024-02-28T20:09:27;22.58;;;11.23;;
20491;SDS011;10404;51.468;6.762;2024-02-28T20:11:52;20.55;;;11.07;;
20491;SDS011;10404;51.468;6.762;2024-02-28T20:14:18;20.88;;;10.88;;
20491;SDS011;10404;51.468;6.762;2024-02-28T20:16:44;20.52;;;10.65;;
20491;SDS011;10404;51.468;6.762;2024-02-28T20:19:10;20.98;;;10.43;;
20491;SDS011;10404;51.468;6.762;2024-02-28T20:21:36;22.13;;;10.55;;
20491;SDS011;10404;51.468;6.762;2024-02-28T20:24:01;20.40;;;10.07;;
20491;SDS011;10404;51.468;6.762;2024-02-28T20:26:27;20.52;;;9.55;;
20491;SDS011;10404;51.468;6.762;2024-02-28T20:28:52;21.73;;;10.85;;
20491;SDS011;10404;51.468;6.762;2024-02-28T20:31:18;23.23;;;11.60;;
20491;SDS011;10404;51.468;6.762;2024-02-28T20:33:46;22.15;;;12.35;;
20491;SDS011;10404;51.468;6.762;2024-02-28T20:36:12;20.80;;;11.18;;
20491;SDS011;10404;51.468;6.762;2024-02-28T20:38:38;19.90;;;12.60;;
20491;SDS011;10404;51.468;6.762;2024-02-28T20:41:04;21.55;;;11.85;;
20491;SDS011;10404;51.468;6.762;2024-02-28T20:43:29;19.83;;;10.52;;
20491;SDS011;10404;51.468;6.762;2024-02-28T20:45:56;22.27;;;11.52;;
20491;SDS011;10404;51.468;6.762;2024-02-28T20:48:21;22.10;;;10.73;;
20491;SDS011;10404;51.468;6.762;2024-02-28T20:50:47;21.67;;;10.98;;
20491;SDS011;10404;51.468;6.762;2024-02-28T20:53:13;21.55;;;10.85;;
20491;SDS011;10404;51.468;6.762;2024-02-28T20:55:38;22.10;;;11.63;;
20491;SDS011;10404;51.468;6.762;2024-02-28T20:58:04;22.65;;;11.32;;
20491;SDS011;10404;51.468;6.762;2024-02-28T21:00:30;21.98;;;10.93;;
20491;SDS011;10404;51.468;6.762;2024-02-28T21:02:55;20.05;;;10.57;;
20491;SDS011;10404;51.468;6.762;2024-02-28T21:05:21;20.75;;;10.95;;
20491;SDS011;10404;51.468;6.762;2024-02-28T21:07:46;19.88;;;10.68;;
20491;SDS011;10404;51.468;6.762;2024-02-28T21:10:12;20.35;;;10.55;;
20491;SDS011;10404;51.468;6.762;2024-02-28T21:12:38;21.58;;;11.23;;
20491;SDS011;10404;51.468;6.762;2024-02-28T21:15:03;21.08;;;11.30;;
20491;SDS011;10404;51.468;6.762;2024-02-28T21:17:35;21.55;;;10.95;;
20491;SDS011;10404;51.468;6.762;2024-02-28T21:20:01;21.73;;;12.45;;
20491;SDS011;10404;51.468;6.762;2024-02-28T21:22:30;19.05;;;12.20;;
20491;SDS011;10404;51.468;6.762;2024-02-28T21:24:57;23.10;;;11.70;;
20491;SDS011;10404;51.468;6.762;2024-02-28T21:27:23;19.55;;;10.02;;
20491;SDS011;10404;51.468;6.762;2024-02-28T21:29:48;22.45;;;11.68;;
20491;SDS011;10404;51.468;6.762;2024-02-28T21:32:16;20.88;;;11.52;;
20491;SDS011;10404;51.468;6.762;2024-02-28T21:34:41;18.98;;;10.38;;
20491;SDS011;10404;51.468;6.762;2024-02-28T21:37:07;22.95;;;11.73;;
20491;SDS011;10404;51.468;6.762;2024-02-28T21:39:32;21.65;;;12.27;;
20491;SDS011;10404;51.468;6.762;2024-02-28T21:41:58;23.60;;;11.43;;
20491;SDS011;10404;51.468;6.762;2024-02-28T21:44:24;18.42;;;11.10;;
20491;SDS011;10404;51.468;6.762;2024-02-28T21:46:52;21.27;;;10.75;;
20491;SDS011;10404;51.468;6.762;2024-02-28T21:49:18;22.00;;;11.73;;
20491;SDS011;10404;51.468;6.762;2024-02-28T21:51:44;22.27;;;11.52;;
20491;SDS011;10404;51.468;6.762;2024-02-28T21:54:09;21.60;;;10.57;;
20491;SDS011;10404;51.468;6.762;2024-02-28T21:56:35;18.88;;;9.55;;
20491;SDS011;10404;51.468;6.762;2024-02-28T21:59:02;19.77;;;11.57;;
20491;SDS011;10404;51.468;6.762;2024-02-28T22:01:28;20.95;;;11.15;;
20491;SDS011;10404;51.468;6.762;2024-02-28T22:03:54;22.00;;;11.32;;
20491;SDS011;10404;51.468;6.762;2024-02-28T22:06:19;24.20;;;12.32;;
20491;SDS011;10404;51.468;6.762;2024-02-28T22:08:45;21.48;;;12.02;;
20491;SDS011;10404;51.468;6.762;2024-02-28T22:11:11;20.92;;;11.55;;
20491;SDS011;10404;51.468;6.762;2024-02-28T22:13:36;22.20;;;12.00;;
20491;SDS011;10404;51.468;6.762;2024-02-28T22:16:02;20.90;;;11.43;;
20491;SDS011;10404;51.468;6.762;2024-02-28T22:18:27;21.58;;;11.65;;
20491;SDS011;10404;51.468;6.762;2024-02-28T22:20:53;18.85;;;10.40;;
20491;SDS011;10404;51.468;6.762;2024-02-28T22:23:18;20.02;;;11.05;;
20491;SDS011;10404;51.468;6.762;2024-02-28T22:25:44;18.60;;;9.55;;
20491;SDS011;10404;51.468;6.762;2024-02-28T22:28:09;19.35;;;10.82;;
20491;SDS011;10404;51.468;6.762;2024-02-28T22:30:35;20.88;;;10.93;;
20491;SDS011;10404;51.468;6.762;2024-02-28T22:33:01;19.30;;;10.40;;
20491;SDS011;10404;51.468;6.762;2024-02-28T22:35:26;20.55;;;10.25;;
20491;SDS011;10404;51.468;6.762;2024-02-28T22:37:52;20.02;;;9.98;;
20491;SDS011;10404;51.468;6.762;2024-02-28T22:40:17;19.52;;;11.18;;
20491;SDS011;10404;51.468;6.762;2024-02-28T22:42:43;19.27;;;11.02;;
20491;SDS011;10404;51.468;6.762;2024-02-28T22:45:09;19.27;;;11.77;;
20491;SDS011;10404;51.468;6.762;2024-02-28T22:47:35;18.48;;;10.80;;
20491;SDS011;10404;51.468;6.762;2024-02-28T22:50:01;19.30;;;9.90;;
20491;SDS011;10404;51.468;6.762;2024-02-28T22:52:27;21.00;;;11.77;;
20491;SDS011;10404;51.468;6.762;2024-02-28T22:54:52;19.88;;;10.65;;
20491;SDS011;10404;51.468;6.762;2024-02-28T22:57:18;17.73;;;9.65;;
20491;SDS011;10404;51.468;6.762;2024-02-28T22:59:44;19.65;;;11.27;;
20491;SDS011;10404;51.468;6.762;2024-02-28T23:02:09;18.85;;;9.95;;
20491;SDS011;10404;51.468;6.762;2024-02-28T23:04:35;20.63;;;9.77;;
20491;SDS011;10404;51.468;6.762;2024-02-28T23:07:01;17.38;;;10.43;;
20491;SDS011;10404;51.468;6.762;2024-02-28T23:09:27;20.10;;;10.75;;
20491;SDS011;10404;51.468;6.762;2024-02-28T23:11:52;18.70;;;11.77;;
20491;SDS011;10404;51.468;6.762;2024-02-28T23:14:18;18.23;;;9.70;;
20491;SDS011;10404;51.468;6.762;2024-02-28T23:16:44;18.05;;;9.80;;
20491;SDS011;10404;51.468;6.762;2024-02-28T23:19:09;17.70;;;9.35;;
20491;SDS011;10404;51.468;6.762;2024-02-28T23:21:37;18.95;;;10.90;;
20491;SDS011;10404;51.468;6.762;2024-02-28T23:24:04;20.50;;;10.60;;
20491;SDS011;10404;51.468;6.762;2024-02-28T23:26:33;17.25;;;9.73;;
20491;SDS011;10404;51.468;6.762;2024-02-28T23:28:59;19.17;;;10.65;;
20491;SDS011;10404;51.468;6.762;2024-02-28T23:31:27;19.42;;;10.90;;
20491;SDS011;10404;51.468;6.762;2024-02-28T23:33:53;18.55;;;10.20;;
20491;SDS011;10404;51.468;6.762;2024-02-28T23:36:18;17.33;;;9.82;;
20491;SDS011;10404;51.468;6.762;2024-02-28T23:38:44;15.82;;;9.90;;
20491;SDS011;10404;51.468;6.762;2024-02-28T23:41:10;17.65;;;9.43;;
20491;SDS011;10404;51.468;6.762;2024-02-28T23:43:36;17.10;;;9.18;;
20491;SDS011;10404;51.468;6.762;2024-02-28T23:46:01;16.33;;;9.05;;
20491;SDS011;10404;51.468;6.762;2024-02-28T23:48:27;16.33;;;10.30;;
20491;SDS011;10404;51.468;6.762;2024-02-28T23:50:52;16.52;;;10.07;;
20491;SDS011;10404;51.468;6.762;2024-02-28T23:53:18;17.00;;;10.27;;
20491;SDS011;10404;51.468;6.762;2024-02-28T23:55:44;15.35;;;8.93;;
20491;SDS011;10404;51.468;6.762;2024-02-28T23:58:10;16.52;;;9.05;;
